Data for 09/09/2013

Time Sea-Level Adjusted Pressure Absolute Pressure Temperature Relative Humidity Dew Point   
(mb) (inHg) (mb) (inHg) (C) (F) (%) (C) (F)
00:05 1019 30.09 848 25.04 12.7 54.8 83 10 49.9
00:10 1019 30.09 848 25.04 12.7 54.9 81 9.7 49.4
00:15 1019 30.09 848 25.04 12.8 55.1 83 10.1 50.2
00:20 1019 30.09 848 25.04 12.8 55 83 10 50.1
00:25 1019 30.09 848 25.04 12.7 54.9 84 10.1 50.1
00:30 1019 30.09 848 25.04 12.7 54.9 85 10.2 50.3
00:35 1019 30.09 848 25.04 12.7 54.8 84 10 50
00:40 1019 30.09 848 25.04 12.7 54.8 83 10 50
00:45 1019 30.09 848 25.04 12.8 55 83 9.9 49.9
00:50 1019 30.09 848 25.04 12.9 55.1 82 9.9 49.8
00:55 1019 30.09 848 25.04 12.8 55 81 9.6 49.4
01:00 1019 30.09 848 25.04 12.8 55 82 9.7 49.5
01:05 1019 30.09 848 25.04 12.8 55 81 9.6 49.3
01:10 1019 30.09 848 25.04 12.8 55 81 9.7 49.4
01:15 1019 30.09 848 25.04 12.7 54.9 83 9.8 49.7
01:20 1019 30.09 848 25.04 12.6 54.6 84 10 50
01:25 1019 30.09 848 25.04 12.4 54.4 85 10 49.9
01:30 1019 30.09 848 25.04 12.3 54.2 84 9.8 49.6
01:35 1019 30.09 848 25.04 12.4 54.3 83 9.5 49.2
01:40 1019 30.09 848 25.04 12.5 54.5 83 9.6 49.3
01:45 1019 30.09 848 25.04 12.5 54.5 81 9.4 49
01:50 1019 30.09 848 25.04 12.6 54.7 81 9.4 48.9
01:55 1019 30.09 848 25.04 12.7 54.9 79 9.2 48.5
02:00 1019 30.09 848 25.04 12.8 55.1 78 9.1 48.4
02:05 1019 30.09 848 25.04 12.8 55.1 77 9 48.2
02:10 1019 30.09 848 25.04 12.8 55.1 76 8.7 47.7
02:15 1019 30.09 848 25.04 12.9 55.2 75 8.6 47.5
02:20 1019 30.09 848 25.04 12.9 55.2 76 8.7 47.6
02:25 1019 30.09 848 25.04 12.8 55.1 76 8.7 47.7
02:30 1019 30.09 848 25.04 12.8 55.1 75 8.6 47.4
02:35 1019 30.09 848 25.04 12.8 55 76 8.6 47.5
02:40 1019 30.09 848 25.04 12.7 54.9 77 8.7 47.7
02:45 1019 30.09 848 25.04 12.6 54.7 75 8.3 46.9
02:50 1019 30.09 848 25.04 12.5 54.5 75 8.2 46.7
02:55 1019 30.09 848 25.04 12.4 54.3 76 8.3 46.9
03:00 1019 30.09 848 25.04 12.3 54.2 77 8.5 47.2
03:05 1019 30.09 848 25.04 12.2 53.9 78 8.5 47.3
03:10 1019 30.09 848 25.04 12.1 53.8 76 8.1 46.6
03:15 1019 30.09 848 25.04 12.1 53.8 77 8.2 46.7
03:20 1019 30.09 848 25.04 12.1 53.7 77 8.1 46.6
03:25 1019 30.09 848 25.04 12 53.6 77 8.2 46.8
03:30 1019 30.09 848 25.04 11.9 53.3 78 8.1 46.7
03:35 1019 30.09 848 25.04 11.8 53.2 79 8.2 46.8
03:40 1019 30.09 848 25.04 11.7 53.1 78 8 46.4
03:45 1019 30.09 848 25.04 11.7 53 80 8.4 47
03:50 1019 30.09 848 25.04 11.3 52.4 82 8.5 47.2
03:55 1019 30.09 848 25.04 11.1 52 82 8.1 46.7
04:00 1019 30.09 848 25.04 11 51.7 81 7.8 46
04:05 1019 30.09 848 25.04 10.9 51.7 79 7.5 45.5
04:10 1019 30.09 848 25.04 11 51.9 78 7.4 45.3
04:15 1019 30.09 848 25.04 11.2 52.1 80 7.9 46.1
04:20 1019 30.09 848 25.04 11.1 52.1 79 7.7 45.8
04:25 1019 30.09 848 25.04 11.1 52 80 7.8 46
04:30 1019 30.09 848 25.04 11.1 52 79 7.5 45.5
04:35 1019 30.09 848 25.04 11.1 52 79 7.6 45.6
04:40 1019 30.09 848 25.04 10.9 51.7 78 7.4 45.2
04:45 1019 30.09 848 25.04 10.8 51.5 77 7 44.6
04:50 1019 30.09 848 25.04 10.8 51.4 74 6.4 43.6
04:55 1019 30.09 848 25.04 11 51.7 70 5.8 42.4
05:00 1019 30.09 848 25.04 11.2 52.2 70 6 42.8
05:05 1019 30.09 848 25.04 11.3 52.3 67 5.3 41.6
05:10 1019 30.09 848 25.04 11.1 52 67 5.2 41.4
05:15 1019 30.09 848 25.04 10.9 51.7 70 5.7 42.2
05:20 1019 30.09 848 25.04 10.6 51.1 70 5.5 41.9
05:25 1019 30.09 848 25.04 10.5 51 72 5.7 42.2
05:30 1019 30.09 848 25.04 10.7 51.3 68 5.1 41.2
05:35 1019 30.09 848 25.04 11 51.9 67 5.2 41.3
05:40 1019 30.09 848 25.04 11.1 51.9 66 5 41
05:45 1019 30.09 848 25.04 11.1 51.9 67 5.3 41.5
05:50 1019 30.09 848 25.04 11 51.8 68 5.3 41.6
05:55 1019 30.09 848 25.04 11 51.7 68 5.2 41.4
06:00 1019 30.09 848 25.04 11 51.9 68 5.4 41.7
06:05 1019 30.09 848 25.04 11 51.9 70 5.8 42.5
06:10 1019 30.09 849 25.07 10.8 51.4 72 6 42.8
06:15 1019 30.09 849 25.07 10.6 51 71 5.6 42
06:20 1019 30.09 849 25.07 10.7 51.3 70 5.5 41.8
06:25 1019 30.09 849 25.07 11.1 51.9 69 5.7 42.3
06:30 1019 30.09 849 25.07 11.1 52 71 6.1 43
06:35 1019 30.09 849 25.07 11.1 52 70 5.8 42.4
06:40 1019 30.09 849 25.07 11.4 52.5 68 5.6 42.1
06:45 1019 30.09 849 25.07 11.7 53.1 65 5.4 41.8
06:50 1019 30.09 849 25.07 12.2 53.9 64 5.7 42.3
06:55 1019 30.09 849 25.07 12.8 55.1 61 5.5 41.9
07:00 1019 30.09 849 25.07 13 55.3 63 6.2 43.1
07:05 1019 30.09 849 25.07 13.3 56 58 5.4 41.6
07:10 1020 30.12 849 25.07 13.5 56.3 58 5.5 41.9
07:15 1020 30.12 849 25.07 13.1 55.6 61 5.8 42.5
07:20 1020 30.12 849 25.07 12.8 55 62 5.7 42.2
07:25 1020 30.12 849 25.07 13 55.3 62 5.8 42.4
07:30 1019 30.09 849 25.07 13 55.4 63 6.1 43
07:35 1020 30.12 849 25.07 13 55.4 64 6.5 43.7
07:40 1020 30.12 849 25.07 12.6 54.7 69 7.1 44.8
07:45 1020 30.12 849 25.07 12.8 55 66 6.6 43.9
07:50 1020 30.12 849 25.07 13.1 55.5 65 6.7 44.1
07:55 1020 30.12 849 25.07 13.5 56.2 65 7.1 44.8
08:00 1020 30.12 849 25.07 14.2 57.6 58 6.1 43
08:05 1020 30.12 849 25.07 15.2 59.4 57 7 44.5
08:10 1020 30.12 849 25.07 15.7 60.3 55 6.8 44.2
08:15 1020 30.12 849 25.07 16.2 61.2 52 6.5 43.7
08:20 1020 30.12 849 25.07 16.1 60.9 56 7.5 45.5
08:25 1020 30.12 849 25.07 15.2 59.3 57 6.7 44
08:30 1020 30.12 849 25.07 14.9 58.8 57 6.5 43.6
08:35 1020 30.12 849 25.07 14.8 58.6 59 6.8 44.3
08:40 1020 30.12 849 25.07 14.5 58 56 6 42.8
08:45 1020 30.12 849 25.07 14.1 57.5 51 4.3 39.7
08:50 1020 30.12 849 25.07 14 57.2 48 3.3 37.9
08:55 1020 30.12 849 25.07 14.2 57.6 50 4.1 39.4
09:00 1020 30.12 849 25.07 14.5 58 49 4.1 39.4
09:05 1020 30.12 849 25.07 14.5 58 51 4.4 39.9
09:10 1020 30.12 849 25.07 14.9 58.8 48 3.9 39.1
09:15 1020 30.12 849 25.07 16 60.7 46 4.3 39.8
09:20 1020 30.12 849 25.07 16.3 61.3 46 4.6 40.3
09:25 1020 30.12 850 25.1 16.4 61.6 45 4.5 40.1
09:30 1020 30.12 850 25.1 16.9 62.5 42 4.1 39.4
09:35 1020 30.12 850 25.1 17 62.6 43 4.6 40.2
09:40 1020 30.12 850 25.1 17.4 63.3 41 4.3 39.7
09:45 1020 30.12 849 25.07 17.6 63.6 41 4.3 39.7
09:50 1020 30.12 849 25.07 17.5 63.5 42 4.5 40.1
09:55 1020 30.12 849 25.07 17.8 64 41 4.5 40.1
10:00 1020 30.12 849 25.07 17.7 63.9 42 4.7 40.4
10:05 1020 30.12 849 25.07 17.7 63.9 42 4.7 40.4
10:10 1020 30.12 850 25.1 18 64.3 41 4.8 40.6
10:15 1020 30.12 850 25.1 18 64.4 42 4.9 40.8
10:20 1020 30.12 850 25.1 18.1 64.6 41 4.9 40.9
10:25 1020 30.12 849 25.07 18.4 65.1 41 5.1 41.2
10:30 1020 30.12 849 25.07 18.4 65 41 4.9 40.8
10:35 1020 30.12 850 25.1 18.6 65.5 41 5.2 41.4
10:40 1020 30.12 850 25.1 18.9 66.1 41 5.4 41.7
10:45 1020 30.12 850 25.1 18.8 65.8 40 5.2 41.3
10:50 1020 30.12 850 25.1 18.8 65.8 41 5.5 41.9
10:55 1020 30.12 850 25.1 18.2 64.8 42 5.4 41.6
11:00 1020 30.12 850 25.1 18.3 64.9 42 5.2 41.3
11:05 1020 30.12 849 25.07 18.2 64.7 42 5.3 41.6
11:10 1020 30.12 849 25.07 18.1 64.6 42 5.2 41.4
11:15 1020 30.12 849 25.07 18.1 64.6 43 5.3 41.6
11:20 1020 30.12 849 25.07 18.8 65.8 41 5.2 41.4
11:25 1020 30.12 849 25.07 18.6 65.5 41 5.3 41.6
11:30 1020 30.12 849 25.07 18.8 65.8 39 4.6 40.4
11:35 1020 30.12 849 25.07 19.4 66.9 38 4.8 40.7
11:40 1020 30.12 849 25.07 18.9 66 38 4.6 40.2
11:45 1020 30.12 849 25.07 19.6 67.3 38 4.9 40.9
11:50 1020 30.12 849 25.07 19.6 67.3 39 5.5 41.9
11:55 1020 30.12 849 25.07 19.3 66.8 40 5.4 41.8
12:00 1020 30.12 849 25.07 18.5 65.4 41 5.2 41.4
12:05 1020 30.12 849 25.07 18.8 65.8 40 5 40.9
12:10 1020 30.12 849 25.07 19.1 66.4 40 5.2 41.3
12:15 1020 30.12 849 25.07 19.3 66.8 38 4.8 40.6
12:20 1020 30.12 849 25.07 20 68 37 4.9 40.9
12:25 1020 30.12 849 25.07 20.1 68.2 37 5.2 41.3
12:30 1020 30.12 849 25.07 20 68 36 4.7 40.4
12:35 1020 30.12 849 25.07 20.1 68.2 36 4.8 40.6
12:40 1020 30.12 849 25.07 20.1 68.2 35 4.3 39.8
12:45 1020 30.12 849 25.07 20.2 68.4 38 5.6 42.1
12:50 1020 30.12 849 25.07 20 68.1 37 5 41
12:55 1020 30.12 849 25.07 19.9 67.7 37 4.9 40.8
13:00 1020 30.12 849 25.07 19.7 67.4 37 4.8 40.7
13:05 1020 30.12 849 25.07 20 67.9 38 5.3 41.5
13:10 1020 30.12 849 25.07 19.7 67.5 37 4.6 40.3
13:15 1020 30.12 849 25.07 19.4 67 38 4.7 40.5
13:20 1020 30.12 849 25.07 19.3 66.7 38 4.7 40.5
13:25 1020 30.12 849 25.07 19.6 67.3 39 5.4 41.7
13:30 1020 30.12 849 25.07 19.9 67.9 37 4.9 40.8
13:35 1020 30.12 849 25.07 20 68.1 37 5 41
13:40 1020 30.12 849 25.07 19.4 66.9 40 5.6 42
13:45 1020 30.12 849 25.07 19.2 66.5 39 5 41
13:50 1020 30.12 849 25.07 18.9 66.1 39 4.8 40.7
13:55 1020 30.12 849 25.07 18.9 66 41 5.5 42
14:00 1020 30.12 849 25.07 18.9 66 40 5.2 41.4
14:05 1020 30.12 849 25.07 19.1 66.4 39 5 41
14:10 1020 30.12 849 25.07 18.8 65.8 40 5.1 41.3
14:15 1020 30.12 849 25.07 18.8 65.9 40 5 41
14:20 1020 30.12 849 25.07 19.5 67.1 37 4.7 40.5
14:25 1020 30.12 849 25.07 19.7 67.5 37 4.7 40.4
14:30 1020 30.12 849 25.07 19.2 66.5 38 4.9 40.7
14:35 1020 30.12 849 25.07 19.2 66.6 39 5 40.9
14:40 1020 30.12 849 25.07 19.8 67.7 36 4.6 40.3
14:45 1020 30.12 849 25.07 20.7 69.3 33 4 39.2
14:50 1020 30.12 849 25.07 22.5 72.5 31 4.8 40.6
14:55 1019 30.09 849 25.07 22.9 73.2 30 4.6 40.2
15:00 1020 30.12 849 25.07 22.8 73.1 30 4.4 39.9
15:05 1020 30.12 849 25.07 22.7 72.9 31 5 41
15:10 1020 30.12 849 25.07 21.9 71.4 32 4.8 40.7
15:15 1020 30.12 849 25.07 21.3 70.3 33 4.5 40.2
15:20 1020 30.12 849 25.07 21.1 70 33 4.4 39.9
15:25 1020 30.12 849 25.07 21.1 70.1 33 4.6 40.3
15:30 1020 30.12 849 25.07 21.3 70.3 33 4.5 40.1
15:35 1020 30.12 849 25.07 21.5 70.6 33 4.6 40.3
15:40 1020 30.12 849 25.07 21.4 70.5 33 4.5 40.1
15:45 1020 30.12 849 25.07 20.7 69.3 35 5 40.9
15:50 1020 30.12 849 25.07 20.6 69.1 35 4.8 40.7
15:55 1020 30.12 849 25.07 20.6 69 37 5.4 41.7
16:00 1020 30.12 849 25.07 20.7 69.3 37 5.6 42
16:05 1020 30.12 849 25.07 20 68 38 5.6 42
16:10 1020 30.12 849 25.07 19.7 67.5 37 4.9 40.8
16:15 1020 30.12 849 25.07 20.2 68.4 37 5.1 41.2
16:20 1020 30.12 849 25.07 20.8 69.4 34 4.6 40.3
16:25 1020 30.12 849 25.07 20.7 69.3 35 4.7 40.4
16:30 1020 30.12 849 25.07 20.8 69.4 35 5 41
16:35 1020 30.12 849 25.07 20.7 69.2 35 4.9 40.8
16:40 1020 30.12 849 25.07 20.4 68.8 35 4.7 40.5
16:45 1020 30.12 849 25.07 20.5 68.9 35 4.8 40.6
16:50 1020 30.12 849 25.07 20.4 68.6 39 6 42.7
16:55 1020 30.12 849 25.07 20 68 35 4.4 40
17:00 1020 30.12 849 25.07 20.2 68.3 37 5.2 41.4
17:05 1020 30.12 849 25.07 19.9 67.8 38 5.3 41.5
17:10 1020 30.12 849 25.07 19.8 67.7 39 5.6 42.1
17:15 1020 30.12 849 25.07 19.7 67.5 38 5.3 41.6
17:20 1020 30.12 849 25.07 19.7 67.4 38 5.1 41.1
17:25 1020 30.12 849 25.07 19.7 67.5 39 5.5 41.9
17:30 1020 30.12 849 25.07 19.9 67.8 37 4.9 40.9
17:35 1020 30.12 849 25.07 19.9 67.9 39 5.7 42.3
17:40 1020 30.12 849 25.07 19.9 67.9 39 5.6 42
17:45 1020 30.12 849 25.07 19.8 67.7 40 6 42.8
17:50 1020 30.12 849 25.07 19.5 67.2 40 5.8 42.4
17:55 1020 30.12 849 25.07 19.2 66.6 41 6 42.7
18:00 1020 30.12 849 25.07 19.3 66.7 41 6 42.8
18:05 1020 30.12 849 25.07 19.5 67 39 5.4 41.8
18:10 1020 30.12 849 25.07 19.5 67.1 40 5.6 42.1
18:15 1020 30.12 849 25.07 19.4 66.9 41 6 42.8
18:20 1020 30.12 849 25.07 19.3 66.7 41 5.7 42.3
18:25 1020 30.12 849 25.07 19.2 66.6 40 5.4 41.7
18:30 1020 30.12 849 25.07 19.2 66.5 40 5.5 41.9
18:35 1020 30.12 849 25.07 19 66.3 40 5.3 41.5
18:40 1020 30.12 849 25.07 18.9 66.1 40 5.2 41.4
18:45 1020 30.12 849 25.07 18.9 66 41 5.6 42
18:50 1020 30.12 849 25.07 18.8 65.8 42 5.9 42.6
18:55 1020 30.12 849 25.07 18.6 65.5 43 5.8 42.4
19:00 1020 30.12 849 25.07 18.6 65.5 41 5.1 41.1
19:05 1020 30.12 849 25.07 18.7 65.7 40 4.9 40.8
19:10 1020 30.12 849 25.07 18.7 65.7 41 5.3 41.6
19:15 1020 30.12 849 25.07 18.5 65.4 44 6.1 43
19:20 1020 30.12 849 25.07 18.1 64.5 46 6.5 43.6
19:25 1020 30.12 849 25.07 17.6 63.6 51 7.5 45.4
19:30 1020 30.12 849 25.07 17 62.7 53 7.5 45.5
19:35 1020 30.12 850 25.1 16.7 62.1 53 7.3 45.1
19:40 1020 30.12 850 25.1 16.7 62 52 7 44.6
19:45 1020 30.12 850 25.1 16.7 62 52 6.9 44.4
19:50 1021 30.15 850 25.1 16.6 61.9 53 7 44.6
19:55 1021 30.15 850 25.1 16.4 61.6 54 7.1 44.8
20:00 1021 30.15 850 25.1 16.3 61.3 54 7 44.5
20:05 1021 30.15 850 25.1 16.3 61.3 57 7.9 46.2
20:10 1021 30.15 850 25.1 16.3 61.4 53 6.9 44.4
20:15 1021 30.15 850 25.1 16.2 61.2 53 6.6 43.9
20:20 1021 30.15 850 25.1 16.2 61.1 54 7 44.7
20:25 1021 30.15 850 25.1 15.9 60.6 55 6.9 44.4
20:30 1021 30.15 850 25.1 15.7 60.3 55 6.8 44.2
20:35 1021 30.15 850 25.1 15.6 60 56 6.9 44.4
20:40 1021 30.15 850 25.1 15.5 60 56 6.8 44.2
20:45 1021 30.15 850 25.1 15.5 59.9 56 6.7 44.1
20:50 1021 30.15 850 25.1 15.4 59.8 57 7 44.5
20:55 1021 30.15 850 25.1 15.2 59.4 57 6.8 44.3
21:00 1021 30.15 850 25.1 15.1 59.2 58 6.9 44.4
21:05 1021 30.15 850 25.1 15.1 59.1 57 6.8 44.3
21:10 1021 30.15 850 25.1 14.9 58.9 58 6.8 44.3
21:15 1021 30.15 850 25.1 14.5 58.1 60 6.8 44.3
21:20 1021 30.15 850 25.1 14 57.2 61 6.7 44.1
21:25 1021 30.15 850 25.1 13.9 57 61 6.5 43.7
21:30 1021 30.15 850 25.1 13.9 57 60 6.4 43.5
21:35 1021 30.15 850 25.1 13.8 56.8 61 6.5 43.6
21:40 1021 30.15 850 25.1 13.7 56.7 61 6.5 43.7
21:45 1021 30.15 850 25.1 13.7 56.6 60 6.2 43.2
21:50 1021 30.15 850 25.1 13.8 56.8 60 6.2 43.2
21:55 1021 30.15 850 25.1 13.7 56.6 61 6.3 43.4
22:00 1021 30.15 850 25.1 13.5 56.3 61 6.3 43.3
22:05 1021 30.15 850 25.1 13.3 56 61 6.1 42.9
22:10 1021 30.15 850 25.1 13.4 56.1 60 5.9 42.6
22:15 1021 30.15 850 25.1 13.5 56.2 61 6.1 43.1
22:20 1021 30.15 851 25.13 13.3 55.9 60 5.8 42.5
22:25 1021 30.15 850 25.1 13.3 56 61 6 42.8
22:30 1021 30.15 851 25.13 13.1 55.7 59 5.4 41.8
22:35 1021 30.15 851 25.13 13.5 56.2 59 5.8 42.4
22:40 1021 30.15 850 25.1 13.2 55.8 60 5.8 42.4
22:45 1021 30.15 851 25.13 13 55.3 62 6 42.7
22:50 1021 30.15 851 25.13 12.5 54.5 64 5.9 42.7
22:55 1021 30.15 850 25.1 12.2 54 63 5.4 41.7
23:00 1021 30.15 850 25.1 12.3 54.1 64 5.7 42.3
23:05 1021 30.15 850 25.1 12 53.7 65 5.6 42.1
23:10 1021 30.15 850 25.1 12 53.5 64 5.5 41.8
23:15 1021 30.15 851 25.13 12 53.6 65 5.6 42.1
23:20 1021 30.15 851 25.13 12 53.6 64 5.5 41.9
23:25 1021 30.15 851 25.13 12 53.5 64 5.5 41.9
23:30 1021 30.15 851 25.13 11.9 53.4 64 5.4 41.7
23:35 1021 30.15 851 25.13 12 53.6 64 5.4 41.8
23:40 1021 30.15 851 25.13 12.1 53.8 62 5.1 41.3
23:45 1022 30.18 851 25.13 12.4 54.2 62 5.3 41.5
23:50 1022 30.18 851 25.13 12.1 53.8 64 5.5 41.8
23:55 1022 30.18 851 25.13 11.7 53.1 65 5.4 41.8
24:00 1022 30.18 851 25.13 11.6 52.9 64 5.2 41.3